sensor_id;sensor_type;location;lat;lon;timestamp;temperature;humidity
4749;DHT22;2388;53.582;9.962;2023-03-31T00:00:10;11.20;99.90
4749;DHT22;2388;53.582;9.962;2023-03-31T00:02:37;11.10;99.90
4749;DHT22;2388;53.582;9.962;2023-03-31T00:05:06;11.10;99.90
4749;DHT22;2388;53.582;9.962;2023-03-31T00:07:32;11.10;99.90
4749;DHT22;2388;53.582;9.962;2023-03-31T00:09:57;11.20;99.90
4749;DHT22;2388;53.582;9.962;2023-03-31T00:12:26;11.10;99.90
4749;DHT22;2388;53.582;9.962;2023-03-31T00:14:52;11.10;99.90
4749;DHT22;2388;53.582;9.962;2023-03-31T00:17:17;11.10;99.90
4749;DHT22;2388;53.582;9.962;2023-03-31T00:19:43;11.10;99.90
4749;DHT22;2388;53.582;9.962;2023-03-31T00:22:09;11.10;99.90
4749;DHT22;2388;53.582;9.962;2023-03-31T00:24:35;11.10;99.90
4749;DHT22;2388;53.582;9.962;2023-03-31T00:27:02;11.10;99.90
4749;DHT22;2388;53.582;9.962;2023-03-31T00:29:28;11.00;99.90
4749;DHT22;2388;53.582;9.962;2023-03-31T00:31:54;11.00;99.90
4749;DHT22;2388;53.582;9.962;2023-03-31T00:34:20;11.10;99.90
4749;DHT22;2388;53.582;9.962;2023-03-31T00:36:46;11.00;99.90
4749;DHT22;2388;53.582;9.962;2023-03-31T00:39:17;11.00;99.90
4749;DHT22;2388;53.582;9.962;2023-03-31T00:41:43;11.00;99.90
4749;DHT22;2388;53.582;9.962;2023-03-31T00:47:05;10.90;99.90
4749;DHT22;2388;53.582;9.962;2023-03-31T00:49:49;10.90;99.90
4749;DHT22;2388;53.582;9.962;2023-03-31T00:54:45;10.90;99.90
4749;DHT22;2388;53.582;9.962;2023-03-31T00:57:12;10.90;99.90
4749;DHT22;2388;53.582;9.962;2023-03-31T00:59:43;10.90;99.90
4749;DHT22;2388;53.582;9.962;2023-03-31T01:02:11;10.90;99.90
4749;DHT22;2388;53.582;9.962;2023-03-31T01:04:45;10.90;99.90
4749;DHT22;2388;53.582;9.962;2023-03-31T01:07:22;10.90;99.90
4749;DHT22;2388;53.582;9.962;2023-03-31T01:09:52;11.00;99.90
4749;DHT22;2388;53.582;9.962;2023-03-31T01:12:21;11.00;99.90
4749;DHT22;2388;53.582;9.962;2023-03-31T01:14:49;11.00;99.90
4749;DHT22;2388;53.582;9.962;2023-03-31T01:17:17;11.00;99.90
4749;DHT22;2388;53.582;9.962;2023-03-31T01:20:06;11.00;99.90
4749;DHT22;2388;53.582;9.962;2023-03-31T01:26:14;11.00;99.90
4749;DHT22;2388;53.582;9.962;2023-03-31T01:37:35;11.10;99.90
4749;DHT22;2388;53.582;9.962;2023-03-31T01:43:07;11.10;99.90
4749;DHT22;2388;53.582;9.962;2023-03-31T01:45:50;11.10;99.90
4749;DHT22;2388;53.582;9.962;2023-03-31T01:51:06;11.10;99.90
4749;DHT22;2388;53.582;9.962;2023-03-31T01:53:47;11.10;99.90
4749;DHT22;2388;53.582;9.962;2023-03-31T01:58:57;11.10;99.90
4749;DHT22;2388;53.582;9.962;2023-03-31T02:01:36;11.10;99.90
4749;DHT22;2388;53.582;9.962;2023-03-31T02:04:12;11.10;99.90
4749;DHT22;2388;53.582;9.962;2023-03-31T02:06:42;11.10;99.90
4749;DHT22;2388;53.582;9.962;2023-03-31T02:09:15;11.10;99.90
4749;DHT22;2388;53.582;9.962;2023-03-31T02:11:42;11.10;99.90
4749;DHT22;2388;53.582;9.962;2023-03-31T02:14:11;11.10;99.90
4749;DHT22;2388;53.582;9.962;2023-03-31T02:16:42;11.10;99.90
4749;DHT22;2388;53.582;9.962;2023-03-31T02:19:12;11.00;99.90
4749;DHT22;2388;53.582;9.962;2023-03-31T02:21:44;11.00;99.90
4749;DHT22;2388;53.582;9.962;2023-03-31T02:24:13;11.00;99.90
4749;DHT22;2388;53.582;9.962;2023-03-31T02:26:51;11.00;99.90
4749;DHT22;2388;53.582;9.962;2023-03-31T02:29:18;11.00;99.90
4749;DHT22;2388;53.582;9.962;2023-03-31T02:32:14;11.00;99.90
4749;DHT22;2388;53.582;9.962;2023-03-31T02:34:37;11.00;99.90
4749;DHT22;2388;53.582;9.962;2023-03-31T02:37:03;10.90;99.90
4749;DHT22;2388;53.582;9.962;2023-03-31T02:39:33;10.90;99.90
4749;DHT22;2388;53.582;9.962;2023-03-31T02:41:59;10.90;99.90
4749;DHT22;2388;53.582;9.962;2023-03-31T02:44:35;10.90;99.90
4749;DHT22;2388;53.582;9.962;2023-03-31T02:47:02;10.90;99.90
4749;DHT22;2388;53.582;9.962;2023-03-31T02:49:31;10.90;99.90
4749;DHT22;2388;53.582;9.962;2023-03-31T02:55:00;10.90;99.90
4749;DHT22;2388;53.582;9.962;2023-03-31T03:00:06;10.80;99.90
4749;DHT22;2388;53.582;9.962;2023-03-31T03:05:52;10.80;99.90
4749;DHT22;2388;53.582;9.962;2023-03-31T03:08:53;10.80;99.90
4749;DHT22;2388;53.582;9.962;2023-03-31T03:11:35;10.80;99.90
4749;DHT22;2388;53.582;9.962;2023-03-31T03:14:27;10.80;99.90
4749;DHT22;2388;53.582;9.962;2023-03-31T03:17:06;10.80;99.90
4749;DHT22;2388;53.582;9.962;2023-03-31T03:19:33;10.80;99.90
4749;DHT22;2388;53.582;9.962;2023-03-31T03:21:59;10.70;99.90
4749;DHT22;2388;53.582;9.962;2023-03-31T03:24:24;10.70;99.90
4749;DHT22;2388;53.582;9.962;2023-03-31T03:26:54;10.70;99.90
4749;DHT22;2388;53.582;9.962;2023-03-31T03:29:19;10.70;99.90
4749;DHT22;2388;53.582;9.962;2023-03-31T03:31:45;10.70;99.90
4749;DHT22;2388;53.582;9.962;2023-03-31T03:34:10;10.70;99.90
4749;DHT22;2388;53.582;9.962;2023-03-31T03:36:37;10.70;99.90
4749;DHT22;2388;53.582;9.962;2023-03-31T03:39:04;10.70;99.90
4749;DHT22;2388;53.582;9.962;2023-03-31T03:41:30;10.70;99.90
4749;DHT22;2388;53.582;9.962;2023-03-31T03:43:58;10.70;99.90
4749;DHT22;2388;53.582;9.962;2023-03-31T03:46:23;10.70;99.90
4749;DHT22;2388;53.582;9.962;2023-03-31T03:48:49;10.70;99.90
4749;DHT22;2388;53.582;9.962;2023-03-31T03:51:14;10.70;99.90
4749;DHT22;2388;53.582;9.962;2023-03-31T03:53:40;10.70;99.90
4749;DHT22;2388;53.582;9.962;2023-03-31T03:56:05;10.70;99.90
4749;DHT22;2388;53.582;9.962;2023-03-31T03:58:31;10.80;99.90
4749;DHT22;2388;53.582;9.962;2023-03-31T04:00:56;10.70;99.90
4749;DHT22;2388;53.582;9.962;2023-03-31T04:03:22;10.70;99.90
4749;DHT22;2388;53.582;9.962;2023-03-31T04:05:47;10.70;99.90
4749;DHT22;2388;53.582;9.962;2023-03-31T04:08:14;10.70;99.90
4749;DHT22;2388;53.582;9.962;2023-03-31T04:10:47;10.70;99.90
4749;DHT22;2388;53.582;9.962;2023-03-31T04:13:14;10.80;99.90
4749;DHT22;2388;53.582;9.962;2023-03-31T04:15:40;10.80;99.90
4749;DHT22;2388;53.582;9.962;2023-03-31T04:18:05;10.80;99.90
4749;DHT22;2388;53.582;9.962;2023-03-31T04:20:31;10.80;99.90
4749;DHT22;2388;53.582;9.962;2023-03-31T04:22:56;10.80;99.90
4749;DHT22;2388;53.582;9.962;2023-03-31T04:25:22;10.80;99.90
4749;DHT22;2388;53.582;9.962;2023-03-31T04:27:49;10.80;99.90
4749;DHT22;2388;53.582;9.962;2023-03-31T04:30:22;10.80;99.90
4749;DHT22;2388;53.582;9.962;2023-03-31T04:32:56;10.80;99.90
4749;DHT22;2388;53.582;9.962;2023-03-31T04:35:24;10.80;99.90
4749;DHT22;2388;53.582;9.962;2023-03-31T04:37:51;10.80;99.90
4749;DHT22;2388;53.582;9.962;2023-03-31T04:40:23;10.80;99.90
4749;DHT22;2388;53.582;9.962;2023-03-31T04:42:48;10.80;99.90
4749;DHT22;2388;53.582;9.962;2023-03-31T04:45:14;10.80;99.90
4749;DHT22;2388;53.582;9.962;2023-03-31T04:47:39;10.80;99.90
4749;DHT22;2388;53.582;9.962;2023-03-31T04:50:07;10.80;99.90
4749;DHT22;2388;53.582;9.962;2023-03-31T04:52:32;10.80;99.90
4749;DHT22;2388;53.582;9.962;2023-03-31T04:54:58;10.80;99.90
4749;DHT22;2388;53.582;9.962;2023-03-31T04:57:23;10.80;99.90
4749;DHT22;2388;53.582;9.962;2023-03-31T04:59:49;10.80;99.90
4749;DHT22;2388;53.582;9.962;2023-03-31T05:02:14;10.80;99.90
4749;DHT22;2388;53.582;9.962;2023-03-31T05:04:47;10.90;99.90
4749;DHT22;2388;53.582;9.962;2023-03-31T05:07:13;11.00;99.90
4749;DHT22;2388;53.582;9.962;2023-03-31T05:09:38;11.10;99.90
4749;DHT22;2388;53.582;9.962;2023-03-31T05:12:04;11.10;99.90
4749;DHT22;2388;53.582;9.962;2023-03-31T05:14:29;11.20;99.90
4749;DHT22;2388;53.582;9.962;2023-03-31T05:16:55;11.20;99.90
4749;DHT22;2388;53.582;9.962;2023-03-31T05:19:22;11.20;99.90
4749;DHT22;2388;53.582;9.962;2023-03-31T05:21:47;11.30;99.90
4749;DHT22;2388;53.582;9.962;2023-03-31T05:24:13;11.30;99.90
4749;DHT22;2388;53.582;9.962;2023-03-31T05:26:38;11.20;99.90
4749;DHT22;2388;53.582;9.962;2023-03-31T05:29:05;11.30;99.90
4749;DHT22;2388;53.582;9.962;2023-03-31T05:31:31;11.30;99.90
4749;DHT22;2388;53.582;9.962;2023-03-31T05:33:56;11.30;99.90
4749;DHT22;2388;53.582;9.962;2023-03-31T05:36:22;11.40;99.90
4749;DHT22;2388;53.582;9.962;2023-03-31T05:38:48;11.40;99.90
4749;DHT22;2388;53.582;9.962;2023-03-31T05:41:13;11.30;99.90
4749;DHT22;2388;53.582;9.962;2023-03-31T05:43:41;11.40;99.90
4749;DHT22;2388;53.582;9.962;2023-03-31T05:46:07;11.40;99.90
4749;DHT22;2388;53.582;9.962;2023-03-31T05:48:33;11.40;99.90
4749;DHT22;2388;53.582;9.962;2023-03-31T05:50:59;11.30;99.90
4749;DHT22;2388;53.582;9.962;2023-03-31T05:53:25;11.30;99.90
4749;DHT22;2388;53.582;9.962;2023-03-31T05:55:56;11.30;99.90
4749;DHT22;2388;53.582;9.962;2023-03-31T05:58:22;11.30;99.90
4749;DHT22;2388;53.582;9.962;2023-03-31T06:00:48;11.30;99.90
4749;DHT22;2388;53.582;9.962;2023-03-31T06:03:13;11.40;99.90
4749;DHT22;2388;53.582;9.962;2023-03-31T06:05:39;11.40;99.90
4749;DHT22;2388;53.582;9.962;2023-03-31T06:08:05;11.40;99.90
4749;DHT22;2388;53.582;9.962;2023-03-31T06:10:32;11.40;99.90
4749;DHT22;2388;53.582;9.962;2023-03-31T06:12:57;11.40;99.90
4749;DHT22;2388;53.582;9.962;2023-03-31T06:15:23;11.50;99.90
4749;DHT22;2388;53.582;9.962;2023-03-31T06:17:48;11.40;99.90
4749;DHT22;2388;53.582;9.962;2023-03-31T06:20:13;11.50;99.90
4749;DHT22;2388;53.582;9.962;2023-03-31T06:22:39;11.50;99.90
4749;DHT22;2388;53.582;9.962;2023-03-31T06:25:05;11.40;99.90
4749;DHT22;2388;53.582;9.962;2023-03-31T06:27:31;11.40;99.90
4749;DHT22;2388;53.582;9.962;2023-03-31T06:29:56;11.50;99.90
4749;DHT22;2388;53.582;9.962;2023-03-31T06:32:22;11.50;99.90
4749;DHT22;2388;53.582;9.962;2023-03-31T06:34:47;11.50;99.90
4749;DHT22;2388;53.582;9.962;2023-03-31T06:37:12;11.50;99.90
4749;DHT22;2388;53.582;9.962;2023-03-31T06:39:38;11.50;99.90
4749;DHT22;2388;53.582;9.962;2023-03-31T06:42:03;11.60;99.90
4749;DHT22;2388;53.582;9.962;2023-03-31T06:44:29;11.60;99.90
4749;DHT22;2388;53.582;9.962;2023-03-31T06:46:54;11.70;99.90
4749;DHT22;2388;53.582;9.962;2023-03-31T06:49:20;11.70;99.90
4749;DHT22;2388;53.582;9.962;2023-03-31T06:51:45;11.60;99.90
4749;DHT22;2388;53.582;9.962;2023-03-31T06:54:11;11.70;99.90
4749;DHT22;2388;53.582;9.962;2023-03-31T06:56:36;11.70;99.90
4749;DHT22;2388;53.582;9.962;2023-03-31T06:59:02;11.70;99.90
4749;DHT22;2388;53.582;9.962;2023-03-31T07:01:27;11.70;99.90
4749;DHT22;2388;53.582;9.962;2023-03-31T07:03:53;11.60;99.90
4749;DHT22;2388;53.582;9.962;2023-03-31T07:06:18;11.60;99.90
4749;DHT22;2388;53.582;9.962;2023-03-31T07:08:44;11.50;99.90
4749;DHT22;2388;53.582;9.962;2023-03-31T07:11:09;11.50;99.90
4749;DHT22;2388;53.582;9.962;2023-03-31T07:13:35;11.50;99.90
4749;DHT22;2388;53.582;9.962;2023-03-31T07:16:01;11.40;99.90
4749;DHT22;2388;53.582;9.962;2023-03-31T07:18:29;11.40;99.90
4749;DHT22;2388;53.582;9.962;2023-03-31T07:20:57;11.50;99.90
4749;DHT22;2388;53.582;9.962;2023-03-31T07:23:24;11.50;99.90
4749;DHT22;2388;53.582;9.962;2023-03-31T07:25:49;11.50;99.90
4749;DHT22;2388;53.582;9.962;2023-03-31T07:28:15;11.50;99.90
4749;DHT22;2388;53.582;9.962;2023-03-31T07:30:40;11.50;99.90
4749;DHT22;2388;53.582;9.962;2023-03-31T07:33:06;11.60;99.90
4749;DHT22;2388;53.582;9.962;2023-03-31T07:35:32;11.60;99.90
4749;DHT22;2388;53.582;9.962;2023-03-31T07:37:57;11.60;99.90
4749;DHT22;2388;53.582;9.962;2023-03-31T07:40:25;11.60;99.90
4749;DHT22;2388;53.582;9.962;2023-03-31T07:42:51;11.60;99.90
4749;DHT22;2388;53.582;9.962;2023-03-31T07:45:18;11.60;99.90
4749;DHT22;2388;53.582;9.962;2023-03-31T07:47:44;11.60;99.90
4749;DHT22;2388;53.582;9.962;2023-03-31T07:50:14;11.60;99.90
4749;DHT22;2388;53.582;9.962;2023-03-31T07:52:40;11.60;99.90
4749;DHT22;2388;53.582;9.962;2023-03-31T07:55:07;11.60;99.90
4749;DHT22;2388;53.582;9.962;2023-03-31T07:57:34;11.60;99.90
4749;DHT22;2388;53.582;9.962;2023-03-31T08:00:06;11.60;99.90
4749;DHT22;2388;53.582;9.962;2023-03-31T08:02:34;11.60;99.90
4749;DHT22;2388;53.582;9.962;2023-03-31T08:05:00;11.60;99.90
4749;DHT22;2388;53.582;9.962;2023-03-31T08:07:26;11.70;99.90
4749;DHT22;2388;53.582;9.962;2023-03-31T08:09:55;11.60;99.90
4749;DHT22;2388;53.582;9.962;2023-03-31T08:12:20;11.50;99.90
4749;DHT22;2388;53.582;9.962;2023-03-31T08:14:46;11.40;99.90
4749;DHT22;2388;53.582;9.962;2023-03-31T08:17:11;11.40;99.90
4749;DHT22;2388;53.582;9.962;2023-03-31T08:19:37;11.30;99.90
4749;DHT22;2388;53.582;9.962;2023-03-31T08:22:03;11.30;99.90
4749;DHT22;2388;53.582;9.962;2023-03-31T08:24:28;11.20;99.90
4749;DHT22;2388;53.582;9.962;2023-03-31T08:26:54;11.20;99.90
4749;DHT22;2388;53.582;9.962;2023-03-31T08:29:19;11.20;99.90
4749;DHT22;2388;53.582;9.962;2023-03-31T08:31:45;11.30;99.90
4749;DHT22;2388;53.582;9.962;2023-03-31T08:34:10;11.30;99.90
4749;DHT22;2388;53.582;9.962;2023-03-31T08:36:36;11.30;99.90
4749;DHT22;2388;53.582;9.962;2023-03-31T08:39:01;11.30;99.90
4749;DHT22;2388;53.582;9.962;2023-03-31T08:44:08;11.30;99.90
4749;DHT22;2388;53.582;9.962;2023-03-31T08:46:35;11.20;99.90
4749;DHT22;2388;53.582;9.962;2023-03-31T08:49:03;11.20;99.90
4749;DHT22;2388;53.582;9.962;2023-03-31T08:51:33;11.20;99.90
4749;DHT22;2388;53.582;9.962;2023-03-31T08:54:04;11.30;99.90
4749;DHT22;2388;53.582;9.962;2023-03-31T08:56:34;11.30;99.90
4749;DHT22;2388;53.582;9.962;2023-03-31T08:59:03;11.30;99.90
4749;DHT22;2388;53.582;9.962;2023-03-31T09:01:46;11.20;99.90
4749;DHT22;2388;53.582;9.962;2023-03-31T09:15:24;11.20;99.90
4749;DHT22;2388;53.582;9.962;2023-03-31T09:17:51;11.20;99.90
4749;DHT22;2388;53.582;9.962;2023-03-31T09:20:24;11.20;99.90
4749;DHT22;2388;53.582;9.962;2023-03-31T09:23:00;11.20;99.90
4749;DHT22;2388;53.582;9.962;2023-03-31T09:25:30;11.20;99.90
4749;DHT22;2388;53.582;9.962;2023-03-31T09:27:58;11.20;99.90
4749;DHT22;2388;53.582;9.962;2023-03-31T09:30:28;11.20;99.90
4749;DHT22;2388;53.582;9.962;2023-03-31T09:33:13;11.20;99.90
4749;DHT22;2388;53.582;9.962;2023-03-31T09:35:39;11.30;99.90
4749;DHT22;2388;53.582;9.962;2023-03-31T09:38:05;11.30;99.90
4749;DHT22;2388;53.582;9.962;2023-03-31T09:40:31;11.30;99.90
4749;DHT22;2388;53.582;9.962;2023-03-31T09:43:03;11.30;99.90
4749;DHT22;2388;53.582;9.962;2023-03-31T09:45:29;11.30;99.90
4749;DHT22;2388;53.582;9.962;2023-03-31T09:48:03;11.30;99.90
4749;DHT22;2388;53.582;9.962;2023-03-31T09:50:34;11.30;99.90
4749;DHT22;2388;53.582;9.962;2023-03-31T09:53:03;11.30;99.90
4749;DHT22;2388;53.582;9.962;2023-03-31T09:55:43;11.30;99.90
4749;DHT22;2388;53.582;9.962;2023-03-31T09:58:14;11.40;99.90
4749;DHT22;2388;53.582;9.962;2023-03-31T10:00:41;11.40;99.90
4749;DHT22;2388;53.582;9.962;2023-03-31T10:03:11;11.40;99.90
4749;DHT22;2388;53.582;9.962;2023-03-31T10:05:39;11.40;99.90
4749;DHT22;2388;53.582;9.962;2023-03-31T10:08:23;11.50;99.90
4749;DHT22;2388;53.582;9.962;2023-03-31T10:10:57;11.50;99.90
4749;DHT22;2388;53.582;9.962;2023-03-31T10:13:58;11.50;99.90
4749;DHT22;2388;53.582;9.962;2023-03-31T10:16:31;11.40;99.90
4749;DHT22;2388;53.582;9.962;2023-03-31T10:19:26;11.50;99.90
4749;DHT22;2388;53.582;9.962;2023-03-31T10:24:25;11.50;99.90
4749;DHT22;2388;53.582;9.962;2023-03-31T10:27:00;11.50;99.90
4749;DHT22;2388;53.582;9.962;2023-03-31T10:29:32;11.50;99.90
4749;DHT22;2388;53.582;9.962;2023-03-31T10:32:03;11.50;99.90
4749;DHT22;2388;53.582;9.962;2023-03-31T10:34:30;11.50;99.90
4749;DHT22;2388;53.582;9.962;2023-03-31T10:36:55;11.50;99.90
4749;DHT22;2388;53.582;9.962;2023-03-31T10:39:30;11.50;99.90
4749;DHT22;2388;53.582;9.962;2023-03-31T10:41:58;11.60;99.90
4749;DHT22;2388;53.582;9.962;2023-03-31T10:44:35;11.60;99.90
4749;DHT22;2388;53.582;9.962;2023-03-31T10:49:41;11.70;99.90
4749;DHT22;2388;53.582;9.962;2023-03-31T10:52:25;11.70;99.90
4749;DHT22;2388;53.582;9.962;2023-03-31T10:54:57;11.80;99.90
4749;DHT22;2388;53.582;9.962;2023-03-31T11:00:48;11.80;99.90
4749;DHT22;2388;53.582;9.962;2023-03-31T11:08:54;11.80;99.90
4749;DHT22;2388;53.582;9.962;2023-03-31T11:11:42;11.80;99.90
4749;DHT22;2388;53.582;9.962;2023-03-31T11:14:39;11.70;99.90
4749;DHT22;2388;53.582;9.962;2023-03-31T11:17:21;11.70;99.90
4749;DHT22;2388;53.582;9.962;2023-03-31T11:22:46;11.70;99.90
4749;DHT22;2388;53.582;9.962;2023-03-31T11:25:27;11.80;99.90
4749;DHT22;2388;53.582;9.962;2023-03-31T11:28:20;11.80;99.90
4749;DHT22;2388;53.582;9.962;2023-03-31T11:41:35;11.80;99.90
4749;DHT22;2388;53.582;9.962;2023-03-31T11:44:04;11.80;99.90
4749;DHT22;2388;53.582;9.962;2023-03-31T11:46:43;11.80;99.90
4749;DHT22;2388;53.582;9.962;2023-03-31T11:49:22;11.70;99.90
4749;DHT22;2388;53.582;9.962;2023-03-31T11:52:17;11.60;99.90
4749;DHT22;2388;53.582;9.962;2023-03-31T11:57:30;11.60;99.90
4749;DHT22;2388;53.582;9.962;2023-03-31T12:00:02;11.50;99.90
4749;DHT22;2388;53.582;9.962;2023-03-31T12:02:52;11.50;99.90
4749;DHT22;2388;53.582;9.962;2023-03-31T12:05:20;11.50;99.90
4749;DHT22;2388;53.582;9.962;2023-03-31T12:08:00;11.50;99.90
4749;DHT22;2388;53.582;9.962;2023-03-31T12:10:38;11.40;99.90
4749;DHT22;2388;53.582;9.962;2023-03-31T12:13:26;11.40;99.90
4749;DHT22;2388;53.582;9.962;2023-03-31T12:18:35;11.40;99.90
4749;DHT22;2388;53.582;9.962;2023-03-31T12:21:03;11.40;99.90
4749;DHT22;2388;53.582;9.962;2023-03-31T12:23:34;11.40;99.90
4749;DHT22;2388;53.582;9.962;2023-03-31T12:26:31;11.30;99.90
4749;DHT22;2388;53.582;9.962;2023-03-31T12:29:04;11.30;99.90
4749;DHT22;2388;53.582;9.962;2023-03-31T12:31:32;11.30;99.90
4749;DHT22;2388;53.582;9.962;2023-03-31T12:34:03;11.40;99.90
4749;DHT22;2388;53.582;9.962;2023-03-31T12:42:09;11.40;99.90
4749;DHT22;2388;53.582;9.962;2023-03-31T12:45:09;11.60;99.90
4749;DHT22;2388;53.582;9.962;2023-03-31T12:53:34;11.40;99.90
4749;DHT22;2388;53.582;9.962;2023-03-31T12:56:03;11.40;99.90
4749;DHT22;2388;53.582;9.962;2023-03-31T13:09:05;11.40;99.90
4749;DHT22;2388;53.582;9.962;2023-03-31T13:11:40;11.50;99.90
4749;DHT22;2388;53.582;9.962;2023-03-31T13:14:21;11.60;99.90
4749;DHT22;2388;53.582;9.962;2023-03-31T13:16:48;11.60;99.90
4749;DHT22;2388;53.582;9.962;2023-03-31T13:19:43;11.60;99.90
4749;DHT22;2388;53.582;9.962;2023-03-31T13:24:53;11.70;99.90
4749;DHT22;2388;53.582;9.962;2023-03-31T13:27:34;11.80;99.90
4749;DHT22;2388;53.582;9.962;2023-03-31T13:29:59;11.80;99.90
4749;DHT22;2388;53.582;9.962;2023-03-31T13:32:26;11.90;99.90
4749;DHT22;2388;53.582;9.962;2023-03-31T13:35:00;11.80;99.90
4749;DHT22;2388;53.582;9.962;2023-03-31T13:40:29;11.90;99.90
4749;DHT22;2388;53.582;9.962;2023-03-31T13:57:23;12.20;99.90
4749;DHT22;2388;53.582;9.962;2023-03-31T14:00:24;12.20;99.90
4749;DHT22;2388;53.582;9.962;2023-03-31T14:03:16;12.20;99.90
4749;DHT22;2388;53.582;9.962;2023-03-31T14:06:19;12.20;99.90
4749;DHT22;2388;53.582;9.962;2023-03-31T14:09:00;12.20;99.90
4749;DHT22;2388;53.582;9.962;2023-03-31T14:11:29;12.30;99.90
4749;DHT22;2388;53.582;9.962;2023-03-31T14:14:05;12.50;99.90
4749;DHT22;2388;53.582;9.962;2023-03-31T14:16:35;12.60;99.90
4749;DHT22;2388;53.582;9.962;2023-03-31T14:22:13;12.70;99.90
4749;DHT22;2388;53.582;9.962;2023-03-31T14:24:58;12.70;99.90
4749;DHT22;2388;53.582;9.962;2023-03-31T14:27:35;12.80;99.90
4749;DHT22;2388;53.582;9.962;2023-03-31T14:30:30;12.80;99.90
4749;DHT22;2388;53.582;9.962;2023-03-31T14:38:37;12.70;99.90
4749;DHT22;2388;53.582;9.962;2023-03-31T14:41:02;12.70;99.90
4749;DHT22;2388;53.582;9.962;2023-03-31T14:43:31;12.60;99.90
4749;DHT22;2388;53.582;9.962;2023-03-31T14:46:04;12.60;99.90
4749;DHT22;2388;53.582;9.962;2023-03-31T14:48:34;12.60;99.90
4749;DHT22;2388;53.582;9.962;2023-03-31T14:51:07;12.60;99.90
4749;DHT22;2388;53.582;9.962;2023-03-31T14:53:35;12.60;99.90
4749;DHT22;2388;53.582;9.962;2023-03-31T14:56:07;12.60;99.90
4749;DHT22;2388;53.582;9.962;2023-03-31T14:58:38;12.70;99.90
4749;DHT22;2388;53.582;9.962;2023-03-31T15:01:05;12.70;99.90
4749;DHT22;2388;53.582;9.962;2023-03-31T15:03:34;12.80;99.90
4749;DHT22;2388;53.582;9.962;2023-03-31T15:06:02;12.80;99.90
4749;DHT22;2388;53.582;9.962;2023-03-31T15:08:29;12.90;99.90
4749;DHT22;2388;53.582;9.962;2023-03-31T15:10:59;12.90;99.90
4749;DHT22;2388;53.582;9.962;2023-03-31T15:13:34;12.90;99.90
4749;DHT22;2388;53.582;9.962;2023-03-31T15:16:40;12.80;99.90
4749;DHT22;2388;53.582;9.962;2023-03-31T15:19:16;12.80;99.90
4749;DHT22;2388;53.582;9.962;2023-03-31T15:21:43;12.70;99.90
4749;DHT22;2388;53.582;9.962;2023-03-31T15:24:11;12.70;99.90
4749;DHT22;2388;53.582;9.962;2023-03-31T15:26:42;12.60;99.90
4749;DHT22;2388;53.582;9.962;2023-03-31T15:29:19;12.60;99.90
4749;DHT22;2388;53.582;9.962;2023-03-31T15:31:45;12.50;99.90
4749;DHT22;2388;53.582;9.962;2023-03-31T15:34:14;12.50;99.90
4749;DHT22;2388;53.582;9.962;2023-03-31T15:36:42;12.50;99.90
4749;DHT22;2388;53.582;9.962;2023-03-31T15:39:09;12.50;99.90
4749;DHT22;2388;53.582;9.962;2023-03-31T15:41:35;12.50;99.90
4749;DHT22;2388;53.582;9.962;2023-03-31T15:47:12;12.50;99.90
4749;DHT22;2388;53.582;9.962;2023-03-31T15:49:56;12.50;99.90
4749;DHT22;2388;53.582;9.962;2023-03-31T15:54:50;12.40;99.90
4749;DHT22;2388;53.582;9.962;2023-03-31T15:57:16;12.40;99.90
4749;DHT22;2388;53.582;9.962;2023-03-31T15:59:46;12.40;99.90
4749;DHT22;2388;53.582;9.962;2023-03-31T16:02:16;12.40;99.90
4749;DHT22;2388;53.582;9.962;2023-03-31T16:04:47;12.40;99.90
4749;DHT22;2388;53.582;9.962;2023-03-31T16:07:22;12.40;99.90
4749;DHT22;2388;53.582;9.962;2023-03-31T16:12:41;12.40;99.90
4749;DHT22;2388;53.582;9.962;2023-03-31T16:15:20;12.30;99.90
4749;DHT22;2388;53.582;9.962;2023-03-31T16:17:49;12.40;99.90
4749;DHT22;2388;53.582;9.962;2023-03-31T16:20:20;12.40;99.90
4749;DHT22;2388;53.582;9.962;2023-03-31T16:22:49;12.40;99.90
4749;DHT22;2388;53.582;9.962;2023-03-31T16:25:18;12.30;99.90
4749;DHT22;2388;53.582;9.962;2023-03-31T16:27:50;12.30;99.90
4749;DHT22;2388;53.582;9.962;2023-03-31T16:30:19;12.30;99.90
4749;DHT22;2388;53.582;9.962;2023-03-31T16:32:59;12.30;99.90
4749;DHT22;2388;53.582;9.962;2023-03-31T16:35:33;12.20;99.90
4749;DHT22;2388;53.582;9.962;2023-03-31T16:37:59;12.20;99.90
4749;DHT22;2388;53.582;9.962;2023-03-31T16:40:29;12.20;99.90
4749;DHT22;2388;53.582;9.962;2023-03-31T16:43:06;12.20;99.90
4749;DHT22;2388;53.582;9.962;2023-03-31T16:45:32;12.20;99.90
4749;DHT22;2388;53.582;9.962;2023-03-31T16:47:57;12.10;99.90
4749;DHT22;2388;53.582;9.962;2023-03-31T16:50:23;12.10;99.90
4749;DHT22;2388;53.582;9.962;2023-03-31T16:52:48;12.10;99.90
4749;DHT22;2388;53.582;9.962;2023-03-31T16:55:14;12.10;99.90
4749;DHT22;2388;53.582;9.962;2023-03-31T16:57:39;12.10;99.90
4749;DHT22;2388;53.582;9.962;2023-03-31T17:00:06;12.10;99.90
4749;DHT22;2388;53.582;9.962;2023-03-31T17:02:31;12.10;99.90
4749;DHT22;2388;53.582;9.962;2023-03-31T17:04:57;12.10;99.90
4749;DHT22;2388;53.582;9.962;2023-03-31T17:07:23;12.20;99.90
4749;DHT22;2388;53.582;9.962;2023-03-31T17:09:48;12.20;99.90
4749;DHT22;2388;53.582;9.962;2023-03-31T17:12:13;12.20;99.90
4749;DHT22;2388;53.582;9.962;2023-03-31T17:14:39;12.20;99.90
4749;DHT22;2388;53.582;9.962;2023-03-31T17:17:04;12.20;99.90
4749;DHT22;2388;53.582;9.962;2023-03-31T17:19:30;12.20;99.90
4749;DHT22;2388;53.582;9.962;2023-03-31T17:21:56;12.20;99.90
4749;DHT22;2388;53.582;9.962;2023-03-31T17:24:26;12.20;99.90
4749;DHT22;2388;53.582;9.962;2023-03-31T17:26:51;12.20;99.90
4749;DHT22;2388;53.582;9.962;2023-03-31T17:29:17;12.20;99.90
4749;DHT22;2388;53.582;9.962;2023-03-31T17:31:42;12.20;99.90
4749;DHT22;2388;53.582;9.962;2023-03-31T17:34:08;12.20;99.90
4749;DHT22;2388;53.582;9.962;2023-03-31T17:36:34;12.20;99.90
4749;DHT22;2388;53.582;9.962;2023-03-31T17:39:00;12.20;99.90
4749;DHT22;2388;53.582;9.962;2023-03-31T17:41:27;12.20;99.90
4749;DHT22;2388;53.582;9.962;2023-03-31T17:43:54;12.20;99.90
4749;DHT22;2388;53.582;9.962;2023-03-31T17:46:19;12.20;99.90
4749;DHT22;2388;53.582;9.962;2023-03-31T17:48:45;12.20;99.90
4749;DHT22;2388;53.582;9.962;2023-03-31T17:51:13;12.20;99.90
4749;DHT22;2388;53.582;9.962;2023-03-31T17:53:41;12.20;99.90
4749;DHT22;2388;53.582;9.962;2023-03-31T17:56:07;12.20;99.90
4749;DHT22;2388;53.582;9.962;2023-03-31T17:58:32;12.20;99.90
4749;DHT22;2388;53.582;9.962;2023-03-31T18:00:59;12.20;99.90
4749;DHT22;2388;53.582;9.962;2023-03-31T18:03:27;12.10;99.90
4749;DHT22;2388;53.582;9.962;2023-03-31T18:05:53;12.00;99.90
4749;DHT22;2388;53.582;9.962;2023-03-31T18:08:18;12.00;99.90
4749;DHT22;2388;53.582;9.962;2023-03-31T18:10:44;11.90;99.90
4749;DHT22;2388;53.582;9.962;2023-03-31T18:13:10;11.90;99.90
4749;DHT22;2388;53.582;9.962;2023-03-31T18:15:35;11.80;99.90
4749;DHT22;2388;53.582;9.962;2023-03-31T18:18:02;11.80;99.90
4749;DHT22;2388;53.582;9.962;2023-03-31T18:20:28;11.90;99.90
4749;DHT22;2388;53.582;9.962;2023-03-31T18:22:54;11.90;99.90
4749;DHT22;2388;53.582;9.962;2023-03-31T18:25:19;11.90;99.90
4749;DHT22;2388;53.582;9.962;2023-03-31T18:27:45;11.90;99.90
4749;DHT22;2388;53.582;9.962;2023-03-31T18:30:13;11.90;99.90
4749;DHT22;2388;53.582;9.962;2023-03-31T18:32:39;11.80;99.90
4749;DHT22;2388;53.582;9.962;2023-03-31T18:35:05;11.90;99.90
4749;DHT22;2388;53.582;9.962;2023-03-31T18:37:30;11.90;99.90
4749;DHT22;2388;53.582;9.962;2023-03-31T18:39:56;11.90;99.90